createdAt,value
2023-03-11T00:00:46.752Z,0.01
2023-03-11T00:01:44.688Z,0.00
2023-03-11T00:02:44.187Z,0.02
2023-03-11T00:03:44.551Z,0.01
2023-03-11T00:04:44.044Z,0.02
2023-03-11T00:05:43.585Z,0.00
2023-03-11T00:06:44.878Z,0.02
2023-03-11T00:07:43.329Z,0.00
2023-03-11T00:08:43.762Z,0.01
2023-03-11T00:09:43.179Z,0.02
2023-03-11T00:10:43.574Z,0.02
2023-03-11T00:11:44.965Z,0.00
2023-03-11T00:12:43.404Z,0.02
2023-03-11T00:13:43.846Z,0.02
2023-03-11T00:14:43.263Z,0.00
2023-03-11T00:15:44.634Z,0.00
2023-03-11T00:16:43.159Z,0.06
2023-03-11T00:17:44.459Z,0.05
2023-03-11T00:18:44.048Z,0.02
2023-03-11T00:19:44.561Z,0.00
2023-03-11T00:20:44.966Z,0.00
2023-03-11T00:21:43.355Z,0.05
2023-03-11T00:22:44.725Z,0.00
2023-03-11T00:23:43.134Z,0.00
2023-03-11T00:24:43.588Z,0.02
2023-03-11T00:25:43.954Z,0.02
2023-03-11T00:26:43.337Z,0.02
2023-03-11T00:27:44.710Z,0.01
2023-03-11T00:28:44.066Z,0.00
2023-03-11T00:29:44.488Z,0.00
2023-03-11T00:30:43.942Z,0.02
2023-03-11T00:31:43.440Z,0.02
2023-03-11T00:32:44.826Z,0.02
2023-03-11T00:33:43.223Z,0.00
2023-03-11T00:34:43.638Z,0.00
2023-03-11T00:35:43.133Z,0.00
2023-03-11T00:37:42.872Z,0.02
2023-03-11T00:38:44.304Z,0.00
2023-03-11T00:39:44.676Z,0.00
2023-03-11T00:40:44.076Z,0.02
2023-03-11T00:41:44.489Z,0.02
2023-03-11T00:42:43.982Z,0.02
2023-03-11T00:43:43.374Z,0.02
2023-03-11T00:44:42.763Z,0.06
2023-03-11T00:45:44.148Z,0.02
2023-03-11T00:46:43.631Z,0.02
2023-03-11T00:47:43.973Z,0.00
2023-03-11T00:48:44.525Z,0.00
2023-03-11T00:49:42.838Z,0.06
2023-03-11T00:50:43.318Z,0.01
2023-03-11T00:51:42.690Z,0.01
2023-03-11T00:52:43.130Z,0.00
2023-03-11T00:53:43.578Z,0.02
2023-03-11T00:54:42.952Z,0.01
2023-03-11T00:55:43.419Z,0.01
2023-03-11T00:56:43.761Z,0.06
2023-03-11T00:57:44.196Z,0.01
2023-03-11T00:58:42.642Z,0.02
2023-03-11T00:59:44.166Z,0.00
2023-03-11T01:00:42.474Z,0.01
2023-03-11T01:01:42.968Z,0.00
2023-03-11T01:02:44.341Z,0.01
2023-03-11T01:03:43.730Z,0.02
2023-03-11T01:04:43.324Z,0.02
2023-03-11T01:05:42.662Z,0.02
2023-03-11T01:06:45.587Z,0.00
2023-03-11T01:07:42.455Z,0.00
2023-03-11T01:10:42.776Z,0.00
2023-03-11T01:11:44.141Z,0.00
2023-03-11T01:12:42.602Z,0.00
2023-03-11T01:13:44.001Z,0.00
2023-03-11T01:14:43.414Z,0.00
2023-03-11T01:15:43.904Z,0.00
2023-03-11T01:16:42.356Z,0.01
2023-03-11T01:17:43.746Z,0.00
2023-03-11T01:18:43.224Z,0.02
2023-03-11T01:19:43.576Z,0.01
2023-03-11T01:20:44.024Z,0.01
2023-03-11T01:21:43.471Z,0.00
2023-03-11T01:22:42.935Z,0.02
2023-03-11T01:23:42.352Z,0.00
2023-03-11T01:24:42.781Z,0.04
2023-03-11T01:25:43.186Z,0.02
2023-03-11T01:26:42.651Z,0.02
2023-03-11T01:27:43.094Z,0.02
2023-03-11T01:28:42.601Z,0.02
2023-03-11T01:29:43.853Z,0.00
2023-03-11T01:30:43.323Z,0.02
2023-03-11T01:31:43.718Z,0.01
2023-03-11T01:32:42.282Z,0.02
2023-03-11T01:33:43.552Z,0.02
2023-03-11T01:34:42.007Z,0.02
2023-03-11T01:35:43.414Z,0.02
2023-03-11T01:36:43.855Z,0.00
2023-03-11T01:37:42.311Z,0.02
2023-03-11T01:38:42.728Z,0.02
2023-03-11T01:39:42.111Z,0.02
2023-03-11T01:40:43.529Z,0.02
2023-03-11T01:41:41.984Z,0.01
2023-03-11T01:42:42.656Z,0.02
2023-03-11T01:43:42.839Z,0.00
2023-03-11T01:44:42.248Z,0.02
2023-03-11T01:45:42.678Z,0.02
2023-03-11T01:46:42.178Z,0.00
2023-03-11T01:47:43.502Z,0.02
2023-03-11T01:48:42.881Z,0.01
2023-03-11T01:49:44.312Z,0.02
2023-03-11T01:50:43.701Z,0.02
2023-03-11T01:51:42.125Z,0.01
2023-03-11T01:52:42.567Z,0.00
2023-03-11T01:53:41.976Z,0.02
2023-03-11T01:54:42.381Z,0.01
2023-03-11T01:55:41.845Z,0.02
2023-03-11T01:56:43.241Z,0.05
2023-03-11T01:57:43.722Z,0.02
2023-03-11T01:58:42.158Z,0.00
2023-03-11T01:59:42.576Z,0.01
2023-03-11T02:00:41.962Z,0.02
2023-03-11T02:01:43.375Z,0.00
2023-03-11T02:02:43.853Z,0.00
2023-03-11T02:03:42.252Z,0.02
2023-03-11T02:04:42.662Z,0.00
2023-03-11T02:05:43.085Z,0.01
2023-03-11T02:06:42.568Z,0.02
2023-03-11T02:08:42.450Z,0.02
2023-03-11T02:09:47.453Z,0.02
2023-03-11T02:10:42.359Z,0.02
2023-03-11T02:11:42.829Z,0.06
2023-03-11T02:12:42.246Z,0.01
2023-03-11T02:13:42.704Z,0.01
2023-03-11T02:14:43.084Z,0.00
2023-03-11T02:15:41.615Z,0.02
2023-03-11T02:16:42.991Z,0.00
2023-03-11T02:17:42.530Z,0.02
2023-03-11T02:18:41.927Z,0.02
2023-03-11T02:19:42.399Z,0.02
2023-03-11T02:20:42.809Z,0.00
2023-03-11T02:21:43.280Z,0.00
2023-03-11T02:22:41.753Z,0.00
2023-03-11T02:23:42.214Z,0.00
2023-03-11T02:24:41.653Z,0.06
2023-03-11T02:25:43.109Z,0.00
2023-03-11T02:26:41.624Z,0.02
2023-03-11T02:27:42.982Z,0.05
2023-03-11T02:28:41.454Z,0.02
2023-03-11T02:29:42.871Z,0.00
2023-03-11T02:30:41.341Z,0.00
2023-03-11T02:31:43.123Z,0.02
2023-03-11T02:32:41.944Z,0.02
2023-03-11T02:33:41.330Z,0.02
2023-03-11T02:34:42.721Z,0.00
2023-03-11T02:35:42.319Z,0.01
2023-03-11T02:36:41.664Z,0.00
2023-03-11T02:37:43.077Z,0.02
2023-03-11T02:38:41.500Z,0.02
2023-03-11T02:40:41.317Z,0.02
2023-03-11T02:41:42.717Z,0.02
2023-03-11T02:42:41.162Z,0.00
2023-03-11T02:43:42.836Z,0.00
2023-03-11T02:44:42.996Z,0.01
2023-03-11T02:45:42.357Z,0.02
2023-03-11T02:46:41.896Z,0.02
2023-03-11T02:47:42.323Z,0.02
2023-03-11T02:48:41.692Z,0.00
2023-03-11T02:50:41.520Z,0.00
2023-03-11T02:51:41.986Z,0.02
2023-03-11T02:52:41.361Z,0.02
2023-03-11T02:53:42.760Z,0.00
2023-03-11T02:54:41.199Z,0.00
2023-03-11T02:55:41.625Z,0.00
2023-03-11T02:56:41.012Z,0.02
2023-03-11T02:57:41.430Z,0.02
2023-03-11T02:58:41.045Z,0.00
2023-03-11T02:59:42.225Z,0.06
2023-03-11T03:00:41.975Z,0.01
2023-03-11T03:01:41.304Z,0.01
2023-03-11T03:02:42.690Z,0.02
2023-03-11T03:04:02.176Z,0.06
2023-03-11T03:04:41.534Z,0.01
2023-03-11T03:05:40.935Z,0.00
2023-03-11T03:06:41.334Z,0.02
2023-03-11T03:07:41.752Z,0.02
2023-03-11T03:08:40.916Z,0.05
2023-03-11T03:09:42.253Z,0.02
2023-03-11T03:10:41.769Z,0.00
2023-03-11T03:11:41.078Z,0.02
2023-03-11T03:12:41.492Z,0.01
2023-03-11T03:13:40.859Z,0.00
2023-03-11T03:14:41.250Z,0.02
2023-03-11T03:15:41.655Z,0.02
2023-03-11T03:16:41.213Z,0.02
2023-03-11T03:17:41.582Z,0.01
2023-03-11T03:18:40.791Z,0.06
2023-03-11T03:19:41.189Z,0.01
2023-03-11T03:20:41.607Z,0.02
2023-03-11T03:21:40.966Z,0.02
2023-03-11T03:22:41.402Z,0.02
2023-03-11T03:23:40.750Z,0.01
2023-03-11T03:24:42.084Z,0.00
2023-03-11T03:25:40.700Z,0.02
2023-03-11T03:26:41.089Z,0.06
2023-03-11T03:27:41.526Z,0.00
2023-03-11T03:28:40.920Z,0.02
2023-03-11T03:29:41.353Z,0.02
2023-03-11T03:30:40.729Z,0.02
2023-03-11T03:31:41.179Z,0.01
2023-03-11T03:32:40.591Z,0.01
2023-03-11T03:33:41.048Z,0.00
2023-03-11T03:34:41.414Z,0.00
2023-03-11T03:35:40.849Z,0.01
2023-03-11T03:36:41.247Z,0.02
2023-03-11T03:37:40.623Z,0.01
2023-03-11T03:38:41.079Z,0.05
2023-03-11T03:39:40.482Z,0.02
2023-03-11T03:40:40.916Z,0.01
2023-03-11T03:41:41.393Z,0.02
2023-03-11T03:42:40.802Z,0.02
2023-03-11T03:43:41.239Z,0.00
2023-03-11T03:44:40.645Z,0.00
2023-03-11T03:45:42.077Z,0.02
2023-03-11T03:46:40.521Z,0.02
2023-03-11T03:47:41.925Z,0.02
2023-03-11T03:48:40.368Z,0.02
2023-03-11T03:49:40.844Z,0.02
2023-03-11T03:51:40.669Z,0.01
2023-03-11T03:52:42.061Z,0.01
2023-03-11T03:53:40.531Z,0.02
2023-03-11T03:54:40.985Z,0.05
2023-03-11T03:55:40.361Z,0.01
2023-03-11T03:56:40.812Z,0.02
2023-03-11T03:57:40.257Z,0.00
2023-03-11T03:58:40.717Z,0.02
2023-03-11T03:59:41.152Z,0.02
2023-03-11T04:00:40.566Z,0.00
2023-03-11T04:01:41.974Z,0.00
2023-03-11T04:02:40.566Z,0.00
2023-03-11T04:03:40.971Z,0.00
2023-03-11T04:04:40.277Z,0.02
2023-03-11T04:05:40.948Z,0.02
2023-03-11T04:06:40.169Z,0.02
2023-03-11T04:07:41.585Z,0.02
2023-03-11T04:08:40.976Z,0.00
2023-03-11T04:09:41.425Z,0.00
2023-03-11T04:10:41.906Z,0.02
2023-03-11T04:11:40.347Z,0.00
2023-03-11T04:12:41.715Z,0.02
2023-03-11T04:13:41.091Z,0.02
2023-03-11T04:14:41.554Z,0.02
2023-03-11T04:15:40.015Z,0.05
2023-03-11T04:16:40.529Z,0.02
2023-03-11T04:17:40.948Z,0.02
2023-03-11T04:18:40.316Z,0.00
2023-03-11T04:19:40.771Z,0.00
2023-03-11T04:20:41.238Z,0.06
2023-03-11T04:21:40.658Z,0.06
2023-03-11T04:22:40.143Z,0.01
2023-03-11T04:23:40.533Z,0.00
2023-03-11T04:24:40.909Z,0.06
2023-03-11T04:25:41.348Z,0.00
2023-03-11T04:26:40.762Z,0.01
2023-03-11T04:27:40.275Z,0.00
2023-03-11T04:28:40.724Z,0.00
2023-03-11T04:29:41.087Z,0.00
2023-03-11T04:30:40.573Z,0.00
2023-03-11T04:31:40.926Z,0.01
2023-03-11T04:32:40.541Z,0.02
2023-03-11T04:33:40.762Z,0.00
2023-03-11T04:34:40.251Z,0.02
2023-03-11T04:35:39.685Z,0.00
2023-03-11T04:36:41.086Z,0.02
2023-03-11T04:37:40.731Z,0.02
2023-03-11T04:38:40.255Z,0.00
2023-03-11T04:39:39.645Z,0.02
2023-03-11T04:40:40.109Z,0.00
2023-03-11T04:41:40.584Z,0.01
2023-03-11T04:42:40.023Z,0.00
2023-03-11T04:43:40.504Z,0.00
2023-03-11T04:44:40.838Z,0.00
2023-03-11T04:45:41.303Z,0.00
2023-03-11T04:46:39.782Z,0.02
2023-03-11T04:47:40.234Z,0.00
2023-03-11T04:48:39.668Z,0.02
2023-03-11T04:49:40.143Z,0.00
2023-03-11T04:50:39.559Z,0.01
2023-03-11T04:51:39.986Z,0.00
2023-03-11T04:52:40.451Z,0.06
2023-03-11T04:53:39.839Z,0.00
2023-03-11T04:54:40.310Z,0.02
2023-03-11T04:55:39.734Z,0.07
2023-03-11T04:56:40.157Z,0.01
2023-03-11T04:57:39.571Z,0.02
2023-03-11T04:58:40.044Z,0.02
2023-03-11T04:59:39.441Z,0.01
2023-03-11T05:00:39.972Z,0.02
2023-03-11T05:01:39.364Z,0.02
2023-03-11T05:02:40.737Z,0.02
2023-03-11T05:03:40.237Z,0.01
2023-03-11T05:04:39.685Z,0.01
2023-03-11T05:05:40.078Z,0.02
2023-03-11T05:06:39.492Z,0.01
2023-03-11T05:07:40.917Z,0.08
2023-03-11T05:08:40.337Z,0.01
2023-03-11T05:09:40.787Z,0.01
2023-03-11T05:10:40.217Z,0.01
2023-03-11T05:11:39.769Z,0.03
2023-03-11T05:12:40.166Z,0.02
2023-03-11T05:13:40.532Z,0.02
2023-03-11T05:14:40.009Z,0.03
2023-03-11T05:15:39.488Z,0.03
2023-03-11T05:16:39.873Z,0.03
2023-03-11T05:17:39.279Z,0.03
2023-03-11T05:18:40.657Z,0.04
2023-03-11T05:19:40.073Z,0.05
2023-03-11T05:20:40.537Z,0.06
2023-03-11T05:21:40.982Z,0.12
2023-03-11T05:22:39.517Z,0.19
2023-03-11T05:23:40.877Z,0.15
2023-03-11T05:24:39.341Z,0.12
2023-03-11T05:25:41.808Z,0.14
2023-03-11T05:26:39.245Z,0.18
2023-03-11T05:27:39.706Z,0.21
2023-03-11T05:28:39.128Z,0.26
2023-03-11T05:29:39.577Z,0.34
2023-03-11T05:30:39.970Z,0.41
2023-03-11T05:31:40.422Z,0.48
2023-03-11T05:32:40.942Z,0.59
2023-03-11T05:33:40.321Z,0.70
2023-03-11T05:34:40.768Z,0.86
2023-03-11T05:35:40.228Z,1.01
2023-03-11T05:36:39.723Z,1.20
2023-03-11T05:37:39.194Z,1.39
2023-03-11T05:38:39.613Z,1.65
2023-03-11T05:39:39.994Z,1.96
2023-03-11T05:40:40.473Z,2.41
2023-03-11T05:41:38.940Z,2.96
2023-03-11T05:42:40.366Z,3.75
2023-03-11T05:43:38.820Z,4.59
2023-03-11T05:44:39.288Z,5.39
2023-03-11T05:45:39.718Z,6.24
2023-03-11T05:46:39.220Z,6.98
2023-03-11T05:47:39.592Z,7.76
2023-03-11T05:48:39.946Z,8.37
2023-03-11T05:49:39.506Z,9.05
2023-03-11T05:50:39.804Z,9.67
2023-03-11T05:51:40.272Z,10.25
2023-03-11T05:52:38.774Z,10.74
2023-03-11T05:53:40.163Z,11.31
2023-03-11T05:54:40.622Z,12.17
2023-03-11T05:55:39.182Z,13.19
2023-03-11T05:56:40.526Z,14.46
2023-03-11T05:57:39.897Z,15.86
2023-03-11T05:58:40.367Z,17.25
2023-03-11T05:59:39.781Z,18.48
2023-03-11T06:00:40.291Z,19.41
2023-03-11T06:01:38.715Z,24.41
2023-03-11T06:02:40.129Z,29.40
2023-03-11T06:03:38.638Z,33.34
2023-03-11T06:04:39.150Z,36.27
2023-03-11T06:05:39.564Z,39.34
2023-03-11T06:06:38.916Z,42.49
2023-03-11T06:07:39.336Z,45.27
2023-03-11T06:08:39.699Z,48.26
2023-03-11T06:09:39.195Z,51.21
2023-03-11T06:10:38.579Z,54.73
2023-03-11T06:11:39.070Z,58.31
2023-03-11T06:12:39.389Z,62.88
2023-03-11T06:13:38.843Z,67.31
2023-03-11T06:14:39.315Z,72.74
2023-03-11T06:15:39.653Z,79.13
2023-03-11T06:16:40.323Z,86.38
2023-03-11T06:17:38.558Z,93.30
2023-03-11T06:18:38.975Z,99.81
2023-03-11T06:19:39.328Z,106.17
2023-03-11T06:20:38.810Z,112.96
2023-03-11T06:21:39.255Z,119.29
2023-03-11T06:22:40.385Z,124.40
2023-03-11T06:23:39.082Z,124.41
2023-03-11T06:24:38.502Z,128.78
2023-03-11T06:25:38.934Z,127.97
2023-03-11T06:26:40.466Z,141.77
2023-03-11T06:27:39.726Z,155.02
2023-03-11T06:28:40.193Z,159.82
2023-03-11T06:29:39.588Z,165.68
2023-03-11T06:30:39.129Z,166.03
2023-03-11T06:31:39.533Z,168.69
2023-03-11T06:32:39.993Z,179.59
2023-03-11T06:33:39.274Z,185.74
2023-03-11T06:34:39.709Z,194.70
2023-03-11T06:35:39.129Z,200.64
2023-03-11T06:36:40.532Z,201.09
2023-03-11T06:37:39.950Z,210.43
2023-03-11T06:38:39.344Z,202.77
2023-03-11T06:39:39.815Z,228.29
2023-03-11T06:40:39.204Z,225.56
2023-03-11T06:41:39.630Z,217.79
2023-03-11T06:42:39.011Z,248.47
2023-03-11T06:43:39.494Z,246.63
2023-03-11T06:44:38.922Z,255.59
2023-03-11T06:45:38.363Z,260.76
2023-03-11T06:46:39.711Z,267.33
2023-03-11T06:47:39.124Z,255.13
2023-03-11T06:48:39.593Z,241.05
2023-03-11T06:49:38.918Z,264.58
2023-03-11T06:50:38.398Z,286.61
2023-03-11T06:51:38.845Z,249.03
2023-03-11T06:52:38.250Z,268.61
2023-03-11T06:53:38.683Z,271.38
2023-03-11T06:54:39.074Z,232.08
2023-03-11T06:55:38.498Z,235.67
2023-03-11T06:56:38.860Z,240.58
2023-03-11T06:57:39.292Z,261.68
2023-03-11T06:58:39.761Z,235.95
2023-03-11T06:59:39.189Z,262.53
2023-03-11T07:00:38.658Z,269.51
2023-03-11T07:01:38.059Z,275.83
2023-03-11T07:02:39.469Z,277.80
2023-03-11T07:03:38.946Z,274.76
2023-03-11T07:04:39.372Z,267.69
2023-03-11T07:05:37.789Z,264.10
2023-03-11T07:06:38.260Z,250.81
2023-03-11T07:07:39.665Z,237.14
2023-03-11T07:08:39.094Z,220.63
2023-03-11T07:09:39.520Z,205.46
2023-03-11T07:10:38.940Z,200.97
2023-03-11T07:11:38.419Z,196.54
2023-03-11T07:12:37.819Z,209.38
2023-03-11T07:13:38.297Z,208.93
2023-03-11T07:14:37.670Z,220.07
2023-03-11T07:15:39.136Z,232.03
2023-03-11T07:16:39.796Z,226.69
2023-03-11T07:17:38.944Z,229.40
2023-03-11T07:18:39.432Z,228.91
2023-03-11T07:19:38.830Z,227.14
2023-03-11T07:20:38.316Z,226.77
2023-03-11T07:21:37.819Z,232.59
2023-03-11T07:22:38.162Z,252.36
2023-03-11T07:23:37.575Z,264.32
2023-03-11T07:24:38.019Z,284.09
2023-03-11T07:25:39.410Z,305.95
2023-03-11T07:26:37.979Z,358.12
2023-03-11T07:27:38.300Z,392.76
2023-03-11T07:28:37.722Z,316.62
2023-03-11T07:29:38.183Z,305.72
2023-03-11T07:30:37.585Z,318.34
2023-03-11T07:31:38.121Z,368.11
2023-03-11T07:32:37.497Z,438.13
2023-03-11T07:33:38.784Z,443.61
2023-03-11T07:34:39.230Z,411.30
2023-03-11T07:35:37.723Z,426.86
2023-03-11T07:36:39.032Z,422.55
2023-03-11T07:37:37.478Z,421.82
2023-03-11T07:38:38.834Z,439.11
2023-03-11T07:39:39.261Z,477.64
2023-03-11T07:40:38.669Z,318.57
2023-03-11T07:41:38.136Z,309.55
2023-03-11T07:42:38.518Z,314.57
2023-03-11T07:43:38.936Z,316.11
2023-03-11T07:44:38.357Z,319.00
2023-03-11T07:45:38.861Z,323.33
2023-03-11T07:46:37.256Z,322.53
2023-03-11T07:47:37.722Z,322.14
2023-03-11T07:48:38.088Z,331.66
2023-03-11T07:49:37.500Z,343.96
2023-03-11T07:50:37.957Z,381.22
2023-03-11T07:51:37.336Z,399.20
2023-03-11T07:52:37.805Z,420.23
2023-03-11T07:53:37.159Z,440.55
2023-03-11T07:54:37.602Z,466.17
2023-03-11T07:55:38.044Z,519.90
2023-03-11T07:56:37.428Z,566.85
2023-03-11T07:57:38.794Z,579.04
2023-03-11T07:58:38.275Z,542.55
2023-03-11T07:59:38.620Z,550.90
2023-03-11T08:00:37.993Z,567.23
2023-03-11T08:01:38.387Z,639.86
2023-03-11T08:02:38.856Z,780.39
2023-03-11T08:03:38.305Z,767.36
2023-03-11T08:04:37.679Z,768.37
2023-03-11T08:05:38.002Z,695.24
2023-03-11T08:06:38.424Z,783.32
2023-03-11T08:07:37.905Z,788.30
2023-03-11T08:08:38.209Z,764.98
2023-03-11T08:09:38.668Z,795.78
2023-03-11T08:10:38.664Z,799.69
2023-03-11T08:11:38.448Z,746.55
2023-03-11T08:12:36.868Z,767.41
2023-03-11T08:13:37.321Z,765.01
2023-03-11T08:14:37.745Z,787.66
2023-03-11T08:15:37.122Z,811.05
2023-03-11T08:16:37.518Z,798.61
2023-03-11T08:17:38.878Z,766.23
2023-03-11T08:18:37.310Z,815.53
2023-03-11T08:19:38.699Z,843.42
2023-03-11T08:20:37.150Z,845.24
2023-03-11T08:21:37.583Z,841.82
2023-03-11T08:22:43.349Z,838.95
2023-03-11T08:23:38.309Z,838.21
2023-03-11T08:24:38.679Z,839.16
2023-03-11T08:25:38.039Z,835.47
2023-03-11T08:26:37.780Z,808.31
2023-03-11T08:27:37.809Z,778.37
2023-03-11T08:28:38.238Z,783.75
2023-03-11T08:29:38.643Z,800.71
2023-03-11T08:30:37.038Z,833.41
2023-03-11T08:31:38.517Z,853.22
2023-03-11T08:32:36.929Z,863.50
2023-03-11T08:33:37.206Z,865.61
2023-03-11T08:34:37.633Z,860.27
2023-03-11T08:35:37.014Z,851.17
2023-03-11T08:36:37.368Z,859.04
2023-03-11T08:37:36.720Z,865.82
2023-03-11T08:38:38.164Z,864.40
2023-03-11T08:39:37.514Z,870.16
2023-03-11T08:40:36.878Z,882.71
2023-03-11T08:41:37.305Z,880.70
2023-03-11T08:42:37.616Z,859.23
2023-03-11T08:43:38.253Z,850.43
2023-03-11T08:44:37.479Z,863.91
2023-03-11T08:45:36.818Z,865.36
2023-03-11T08:46:38.204Z,863.47
2023-03-11T08:47:37.533Z,878.38
2023-03-11T08:48:36.938Z,845.47
2023-03-11T08:49:37.348Z,878.65
2023-03-11T08:50:52.813Z,887.66
2023-03-11T08:51:38.106Z,834.48
2023-03-11T08:52:38.440Z,902.55
2023-03-11T08:53:37.885Z,891.75
2023-03-11T08:54:37.233Z,869.07
2023-03-11T08:55:37.511Z,876.74
2023-03-11T08:56:36.982Z,879.07
2023-03-11T08:57:37.242Z,895.38
2023-03-11T08:58:36.698Z,907.61
2023-03-11T08:59:38.051Z,918.28
2023-03-11T09:00:36.458Z,908.81
2023-03-11T09:01:37.815Z,910.49
2023-03-11T09:02:38.316Z,925.06
2023-03-11T09:03:37.541Z,930.60
2023-03-11T09:04:36.984Z,920.51
2023-03-11T09:05:37.378Z,938.80
2023-03-11T09:06:37.702Z,941.68
2023-03-11T09:07:37.128Z,946.59
2023-03-11T09:08:36.456Z,970.25
2023-03-11T09:09:38.830Z,969.96
2023-03-11T09:10:37.141Z,990.26
2023-03-11T09:11:36.571Z,1003.86
2023-03-11T09:12:37.886Z,1021.34
2023-03-11T09:13:37.322Z,1042.17
2023-03-11T09:14:39.101Z,1070.88
2023-03-11T09:15:37.996Z,847.42
2023-03-11T09:16:37.405Z,685.92
2023-03-11T09:17:36.806Z,741.78
2023-03-11T09:18:36.160Z,704.78
2023-03-11T09:19:36.562Z,636.74
2023-03-11T09:20:36.946Z,1127.73
2023-03-11T09:21:36.314Z,609.83
2023-03-11T09:22:37.629Z,1057.37
2023-03-11T09:23:36.984Z,893.74
2023-03-11T09:24:37.363Z,582.85
2023-03-11T09:25:37.742Z,947.03
2023-03-11T09:26:36.092Z,594.41
2023-03-11T09:27:36.480Z,974.01
2023-03-11T09:28:37.867Z,991.89
2023-03-11T09:29:37.135Z,853.09
2023-03-11T09:30:36.566Z,1066.37
2023-03-11T09:31:36.962Z,885.45
2023-03-11T09:32:37.331Z,509.38
2023-03-11T09:33:37.610Z,475.42
2023-03-11T09:34:36.959Z,472.80
2023-03-11T09:35:36.383Z,476.99
2023-03-11T09:36:37.664Z,476.50
2023-03-11T09:37:36.059Z,533.29
2023-03-11T09:38:37.355Z,472.36
2023-03-11T09:39:37.834Z,473.81
2023-03-11T09:40:39.156Z,503.99
2023-03-11T09:41:44.931Z,518.40
2023-03-11T09:42:36.886Z,516.70
2023-03-11T09:43:37.200Z,519.16
2023-03-11T09:44:37.580Z,530.83
2023-03-11T09:45:36.072Z,537.75
2023-03-11T09:46:37.365Z,535.70
2023-03-11T09:47:35.755Z,533.86
2023-03-11T09:48:37.094Z,536.43
2023-03-11T09:49:36.526Z,555.02
2023-03-11T09:50:35.892Z,570.21
2023-03-11T09:51:36.362Z,611.99
2023-03-11T09:52:35.635Z,645.83
2023-03-11T09:53:36.069Z,587.83
2023-03-11T09:54:36.472Z,776.59
2023-03-11T09:55:35.775Z,648.36
2023-03-11T09:56:37.203Z,705.73
2023-03-11T09:57:36.565Z,732.71
2023-03-11T09:58:35.919Z,739.43
2023-03-11T09:59:36.318Z,714.07
2023-03-11T10:00:35.669Z,1000.44
2023-03-11T10:01:36.065Z,1131.41
2023-03-11T10:02:35.633Z,1159.69
2023-03-11T10:03:38.606Z,1191.69
2023-03-11T10:04:36.245Z,1234.80
2023-03-11T10:05:35.592Z,1264.19
2023-03-11T10:06:35.987Z,1298.14
2023-03-11T10:07:37.367Z,1001.86
2023-03-11T10:08:35.732Z,707.52
2023-03-11T10:09:39.282Z,717.38
2023-03-11T10:10:35.477Z,712.82
2023-03-11T10:11:35.873Z,1278.14
2023-03-11T10:12:36.238Z,1401.00
2023-03-11T10:13:35.623Z,1398.67
2023-03-11T10:14:36.837Z,792.03
2023-03-11T10:15:36.367Z,829.45
2023-03-11T10:16:35.760Z,818.95
2023-03-11T10:17:36.062Z,948.02
2023-03-11T10:18:35.408Z,670.20
2023-03-11T10:19:35.832Z,596.96
2023-03-11T10:20:37.121Z,604.03
2023-03-11T10:21:35.507Z,615.46
2023-03-11T10:22:35.881Z,619.70
2023-03-11T10:23:35.213Z,619.13
2023-03-11T10:24:35.582Z,612.98
2023-03-11T10:25:36.141Z,608.95
2023-03-11T10:26:35.353Z,592.99
2023-03-11T10:27:35.748Z,571.12
2023-03-11T10:28:36.093Z,587.93
2023-03-11T10:29:35.451Z,596.11
2023-03-11T10:30:35.802Z,599.41
2023-03-11T10:31:35.345Z,602.45
2023-03-11T10:32:35.559Z,595.66
2023-03-11T10:33:35.925Z,655.39
2023-03-11T10:34:37.272Z,727.99
2023-03-11T10:35:35.619Z,777.87
2023-03-11T10:36:35.992Z,1045.40
2023-03-11T10:37:48.440Z,1058.03
2023-03-11T10:38:36.644Z,1231.09
2023-03-11T10:39:36.006Z,1272.34
2023-03-11T10:40:35.325Z,1264.00
2023-03-11T10:41:35.673Z,1304.60
2023-03-11T10:42:35.004Z,1351.10
2023-03-11T10:43:35.299Z,1338.29
2023-03-11T10:44:35.626Z,1225.43
2023-03-11T10:45:35.926Z,1120.67
2023-03-11T10:46:35.277Z,1042.23
2023-03-11T10:47:35.652Z,1027.13
2023-03-11T10:48:34.917Z,837.38
2023-03-11T10:49:35.273Z,665.62
2023-03-11T10:50:36.645Z,681.65
2023-03-11T10:51:34.928Z,685.86
2023-03-11T10:52:35.273Z,653.73
2023-03-11T10:53:35.677Z,643.96
2023-03-11T10:54:34.926Z,651.96
2023-03-11T10:55:36.262Z,666.81
2023-03-11T10:56:35.641Z,689.98
2023-03-11T10:57:34.975Z,702.51
2023-03-11T10:58:35.343Z,700.18
2023-03-11T10:59:35.693Z,696.90
2023-03-11T11:00:34.967Z,708.10
2023-03-11T11:01:35.395Z,719.10
2023-03-11T11:02:35.663Z,723.67
2023-03-11T11:03:34.972Z,751.92
2023-03-11T11:04:35.420Z,785.35
2023-03-11T11:05:34.756Z,812.45
2023-03-11T11:06:35.024Z,836.04
2023-03-11T11:07:35.362Z,855.43
2023-03-11T11:08:34.688Z,875.75
2023-03-11T11:09:35.030Z,880.72
2023-03-11T11:10:35.492Z,834.95
2023-03-11T11:11:34.719Z,807.43
2023-03-11T11:12:35.050Z,883.05
2023-03-11T11:13:35.568Z,1052.44
2023-03-11T11:14:34.697Z,1059.49
2023-03-11T11:15:35.046Z,1030.51
2023-03-11T11:16:35.540Z,1056.78
2023-03-11T11:17:34.737Z,1053.79
2023-03-11T11:18:35.082Z,1121.65
2023-03-11T11:19:35.397Z,1171.02
2023-03-11T11:20:34.733Z,1118.46
2023-03-11T11:21:35.058Z,1098.84
2023-03-11T11:22:35.448Z,1059.59
2023-03-11T11:23:34.700Z,1118.21
2023-03-11T11:24:35.056Z,1053.01
2023-03-11T11:25:35.438Z,1114.30
2023-03-11T11:26:34.694Z,1067.19
2023-03-11T11:27:35.028Z,1014.25
2023-03-11T11:28:35.432Z,1011.48
2023-03-11T11:29:34.669Z,937.26
2023-03-11T11:30:35.074Z,898.80
2023-03-11T11:31:34.292Z,913.94
2023-03-11T11:32:34.734Z,878.55
2023-03-11T11:33:35.003Z,926.34
2023-03-11T11:34:34.563Z,987.12
2023-03-11T11:35:34.700Z,1069.16
2023-03-11T11:36:35.036Z,969.30
2023-03-11T11:37:34.340Z,885.93
2023-03-11T11:38:34.678Z,814.03
2023-03-11T11:39:35.052Z,833.28
2023-03-11T11:40:34.363Z,872.67
2023-03-11T11:41:34.687Z,982.11
2023-03-11T11:42:35.024Z,1084.51
2023-03-11T11:43:34.336Z,1133.60
2023-03-11T11:44:34.702Z,996.60
2023-03-11T11:45:35.078Z,997.36
2023-03-11T11:46:34.417Z,873.76
2023-03-11T11:47:34.684Z,772.92
2023-03-11T11:48:35.049Z,743.97
2023-03-11T11:49:34.358Z,709.71
2023-03-11T11:50:34.718Z,679.24
2023-03-11T11:51:35.402Z,656.91
2023-03-11T11:52:34.354Z,644.87
2023-03-11T11:53:34.673Z,632.05
2023-03-11T11:54:33.993Z,621.76
2023-03-11T11:55:34.353Z,610.41
2023-03-11T11:56:34.693Z,598.17
2023-03-11T11:57:34.004Z,598.31
2023-03-11T11:58:34.395Z,611.89
2023-03-11T11:59:34.753Z,643.87
2023-03-11T12:00:34.078Z,674.14
2023-03-11T12:01:34.455Z,703.53
2023-03-11T12:02:34.873Z,701.46
2023-03-11T12:03:34.155Z,727.99
2023-03-11T12:04:34.513Z,757.47
2023-03-11T12:05:34.921Z,739.52
2023-03-11T12:06:34.190Z,741.96
2023-03-11T12:07:34.566Z,748.02
2023-03-11T12:08:33.892Z,753.75
2023-03-11T12:09:34.236Z,745.06
2023-03-11T12:10:34.617Z,759.14
2023-03-11T12:11:33.939Z,736.73
2023-03-11T12:12:34.302Z,712.12
2023-03-11T12:13:34.713Z,687.43
2023-03-11T12:14:33.943Z,670.23
2023-03-11T12:15:34.318Z,683.13
2023-03-11T12:16:34.695Z,756.52
2023-03-11T12:17:34.027Z,738.95
2023-03-11T12:18:34.361Z,786.58
2023-03-11T12:19:34.861Z,856.92
2023-03-11T12:20:34.018Z,725.24
2023-03-11T12:21:34.396Z,781.81
2023-03-11T12:22:33.702Z,809.83
2023-03-11T12:23:34.083Z,835.89
2023-03-11T12:24:34.427Z,841.65
2023-03-11T12:25:34.960Z,814.46
2023-03-11T12:26:34.133Z,852.40
2023-03-11T12:27:34.451Z,957.66
2023-03-11T12:28:33.742Z,945.73
2023-03-11T12:29:34.110Z,1323.49
2023-03-11T12:30:34.442Z,1205.99
2023-03-11T12:31:33.788Z,1250.93
2023-03-11T12:32:34.165Z,1389.83
2023-03-11T12:33:34.422Z,1421.07
2023-03-11T12:34:33.708Z,1336.59
2023-03-11T12:35:34.128Z,1200.77
2023-03-11T12:36:34.477Z,1058.16
2023-03-11T12:37:33.734Z,1138.15
2023-03-11T12:38:34.037Z,1093.84
2023-03-11T12:39:34.395Z,1290.68
2023-03-11T12:40:33.691Z,1316.78
2023-03-11T12:41:34.033Z,969.29
2023-03-11T12:42:34.439Z,1086.09
2023-03-11T12:43:33.756Z,1002.82
2023-03-11T12:44:34.036Z,989.48
2023-03-11T12:45:34.316Z,917.05
2023-03-11T12:46:33.729Z,1095.18
2023-03-11T12:47:35.728Z,862.53
2023-03-11T12:48:33.404Z,854.47
2023-03-11T12:49:33.720Z,831.13
2023-03-11T12:50:34.024Z,809.00
2023-03-11T12:51:33.324Z,795.43
2023-03-11T12:52:33.680Z,782.92
2023-03-11T12:53:34.048Z,783.03
2023-03-11T12:54:33.376Z,780.51
2023-03-11T12:55:33.709Z,784.82